aviador You're here:

KSKA Decoded Metar

SPOKANE in WA, USA
Report Time2017-12-11 08:58:00
UTC Time2017-12-11 09:07:25
Flight Rules lifr LIFR
Wind050° at 05 kt
W.Decomp.*RWY 05: 4.8 kt HW 1.4 kt LCW
W.Rank050° ranks 10
Current wind is below 050° avg. (6.3)
Visibility9999 m
Phenomena:N/A
Clouds:Overcast 004 Hf
Ceiling400 ft
Temp-4°C (ISA -14)
Dew Point-4°C (100% RH)
AAT-8.3°C
QNH1035 hPa
Density Alt59 ft
Elevation2,461 ft
Report Wrong Elevation
Raw Report
KSKA 110858Z 05005KT 10SM OVC004 M04/M04 A3057 RMK AO2A SLP387
T10431043 55002 $=

Extra information for KSKA:More info

Metar Taf Metar & Taf Last 4 Metars F.Rules Stats Wind Profile Meteogram Temp Stats Airport Information Weather charts Add Link Nearby VenuesMetar ALERT Operation Metar Decoded Social comments

AIRNAV info for KSKA